EXS43AG EGPH-EGBB
Flight info
| Callsign | EXS43AG |
|---|---|
| Flight time | 0h 49m |
| Altitude | 27000 |
| Route | GOSAM P600 FENIK L612 NAVSO DCT AKOMU DCT VAMEB UL612 CROFT |
| Aircraft | B738/M-SDE2E3FGHIRWXY/LB1 |
Departure
| Time | 2026-04-21 19:15 |
|---|---|
| Airport | Edinburgh Airport (EGPH) |
Arrival
| Time | 2026-04-21 20:04 |
|---|---|
| Airport | Birmingham Airport (EGBB) |
| Time | Latitude | Longitude | Altitude | Speed | Heading |
|---|---|---|---|---|---|
| 2026-04-21 18:42 | 55.94657 | -3.36621 | 115 ft | 0 kts | 89° |
| 2026-04-21 19:04 | 55.94656 | -3.36650 | 111 ft | 4 kts | 82° |
| 2026-04-21 19:04 | 55.94649 | -3.36695 | 112 ft | 4 kts | 60° |
| 2026-04-21 19:04 | 55.94632 | -3.36728 | 111 ft | 4 kts | 20° |
| 2026-04-21 19:05 | 55.94619 | -3.36734 | 114 ft | 0 kts | 359° |
| 2026-04-21 19:08 | 55.94621 | -3.36734 | 114 ft | 1 kts | 359° |
| 2026-04-21 19:08 | 55.94662 | -3.36734 | 113 ft | 9 kts | 0° |
| 2026-04-21 19:08 | 55.94724 | -3.36733 | 113 ft | 9 kts | 360° |
| 2026-04-21 19:09 | 55.94781 | -3.36771 | 115 ft | 9 kts | 340° |
| 2026-04-21 19:09 | 55.94841 | -3.36776 | 115 ft | 9 kts | 1° |
| 2026-04-21 19:09 | 55.94896 | -3.36800 | 112 ft | 8 kts | 332° |
| 2026-04-21 19:09 | 55.94929 | -3.36872 | 115 ft | 8 kts | 264° |
| 2026-04-21 19:10 | 55.94904 | -3.36963 | 114 ft | 8 kts | 241° |
| 2026-04-21 19:10 | 55.94875 | -3.37048 | 115 ft | 9 kts | 238° |
| 2026-04-21 19:10 | 55.94838 | -3.37155 | 115 ft | 11 kts | 239° |
| 2026-04-21 19:10 | 55.94799 | -3.37272 | 114 ft | 11 kts | 239° |
| 2026-04-21 19:11 | 55.94760 | -3.37386 | 113 ft | 11 kts | 238° |
| 2026-04-21 19:11 | 55.94723 | -3.37495 | 112 ft | 10 kts | 238° |
| 2026-04-21 19:11 | 55.94683 | -3.37614 | 113 ft | 11 kts | 238° |
| 2026-04-21 19:11 | 55.94642 | -3.37735 | 113 ft | 11 kts | 238° |
| 2026-04-21 19:12 | 55.94615 | -3.37812 | 114 ft | 11 kts | 238° |
| 2026-04-21 19:12 | 55.94576 | -3.37927 | 115 ft | 11 kts | 238° |
| 2026-04-21 19:12 | 55.94539 | -3.38039 | 113 ft | 10 kts | 239° |
| 2026-04-21 19:12 | 55.94490 | -3.38181 | 115 ft | 10 kts | 238° |
| 2026-04-21 19:13 | 55.94455 | -3.38286 | 113 ft | 10 kts | 239° |
| 2026-04-21 19:13 | 55.94432 | -3.38354 | 113 ft | 10 kts | 239° |
| 2026-04-21 19:13 | 55.94395 | -3.38462 | 113 ft | 12 kts | 239° |
| 2026-04-21 19:13 | 55.94346 | -3.38609 | 114 ft | 15 kts | 239° |
| 2026-04-21 19:14 | 55.94294 | -3.38759 | 113 ft | 14 kts | 237° |
| 2026-04-21 19:14 | 55.94317 | -3.38896 | 114 ft | 13 kts | 325° |
| 2026-04-21 19:14 | 55.94402 | -3.38961 | 113 ft | 14 kts | 11° |
| 2026-04-21 19:14 | 55.94465 | -3.38828 | 112 ft | 20 kts | 59° |
| 2026-04-21 19:15 | 55.94691 | -3.38162 | 112 ft | 105 kts | 59° |
| 2026-04-21 19:15 | 55.95184 | -3.36719 | 375 ft | 152 kts | 60° |
| 2026-04-21 19:15 | 55.95729 | -3.35128 | 1561 ft | 143 kts | 59° |
| 2026-04-21 19:15 | 55.96333 | -3.33681 | 2453 ft | 155 kts | 49° |
| 2026-04-21 19:16 | 55.97246 | -3.32381 | 2937 ft | 176 kts | 42° |
| 2026-04-21 19:16 | 55.98212 | -3.30960 | 3580 ft | 188 kts | 45° |
| 2026-04-21 19:16 | 55.99223 | -3.29334 | 3814 ft | 209 kts | 45° |
| 2026-04-21 19:16 | 56.00549 | -3.27916 | 4025 ft | 238 kts | 20° |
| 2026-04-21 19:17 | 56.03773 | -3.30207 | 4962 ft | 291 kts | 302° |
| 2026-04-21 19:17 | 56.04336 | -3.33750 | 5608 ft | 305 kts | 272° |
| 2026-04-21 19:17 | 56.03975 | -3.37456 | 6610 ft | 298 kts | 248° |
| 2026-04-21 19:18 | 56.03121 | -3.40664 | 7831 ft | 287 kts | 241° |
| 2026-04-21 19:18 | 56.02014 | -3.43665 | 8585 ft | 291 kts | 219° |
| 2026-04-21 19:18 | 56.00257 | -3.45290 | 9439 ft | 283 kts | 190° |
| 2026-04-21 19:18 | 55.98332 | -3.46092 | 10358 ft | 286 kts | 188° |
| 2026-04-21 19:19 | 55.96367 | -3.46864 | 11187 ft | 290 kts | 188° |
| 2026-04-21 19:19 | 55.94381 | -3.47672 | 12063 ft | 294 kts | 189° |
| 2026-04-21 19:19 | 55.92380 | -3.48524 | 12973 ft | 297 kts | 189° |
| 2026-04-21 19:19 | 55.90355 | -3.49416 | 13614 ft | 312 kts | 190° |
| 2026-04-21 19:20 | 55.88162 | -3.50404 | 13952 ft | 335 kts | 191° |
| 2026-04-21 19:20 | 55.85871 | -3.51463 | 14678 ft | 343 kts | 191° |
| 2026-04-21 19:20 | 55.83551 | -3.52555 | 15546 ft | 345 kts | 192° |
| 2026-04-21 19:20 | 55.81220 | -3.53662 | 16435 ft | 348 kts | 191° |
| 2026-04-21 19:21 | 55.78867 | -3.54782 | 17278 ft | 352 kts | 192° |
| 2026-04-21 19:21 | 55.76481 | -3.55919 | 18118 ft | 357 kts | 192° |
| 2026-04-21 19:21 | 55.74066 | -3.57070 | 18938 ft | 361 kts | 192° |
| 2026-04-21 19:21 | 55.71655 | -3.58217 | 19685 ft | 364 kts | 192° |
| 2026-04-21 19:22 | 55.69196 | -3.59387 | 20466 ft | 366 kts | 192° |
| 2026-04-21 19:22 | 55.66723 | -3.60562 | 21195 ft | 370 kts | 193° |
| 2026-04-21 19:22 | 55.64216 | -3.61749 | 21891 ft | 374 kts | 192° |
| 2026-04-21 19:22 | 55.61717 | -3.62933 | 22597 ft | 377 kts | 192° |
| 2026-04-21 19:23 | 55.59177 | -3.64135 | 23338 ft | 380 kts | 193° |
| 2026-04-21 19:23 | 55.56608 | -3.65352 | 23993 ft | 384 kts | 193° |
| 2026-04-21 19:23 | 55.54007 | -3.66581 | 24550 ft | 388 kts | 191° |
| 2026-04-21 19:23 | 55.51386 | -3.67815 | 25118 ft | 390 kts | 192° |
| 2026-04-21 19:24 | 55.48750 | -3.69054 | 25635 ft | 395 kts | 194° |
| 2026-04-21 19:24 | 55.46067 | -3.70311 | 26094 ft | 400 kts | 194° |
| 2026-04-21 19:24 | 55.43362 | -3.71579 | 26668 ft | 402 kts | 194° |
| 2026-04-21 19:24 | 55.40663 | -3.72844 | 27307 ft | 402 kts | 195° |
| 2026-04-21 19:25 | 55.37975 | -3.74102 | 27478 ft | 403 kts | 195° |
| 2026-04-21 19:25 | 55.35268 | -3.75367 | 27481 ft | 400 kts | 195° |
| 2026-04-21 19:25 | 55.32577 | -3.76623 | 27486 ft | 400 kts | 195° |
| 2026-04-21 19:25 | 55.29882 | -3.77879 | 27492 ft | 401 kts | 195° |
| 2026-04-21 19:26 | 55.27185 | -3.79132 | 27487 ft | 401 kts | 195° |
| 2026-04-21 19:26 | 55.24459 | -3.80200 | 27475 ft | 402 kts | 186° |
| 2026-04-21 19:26 | 55.21670 | -3.80079 | 27490 ft | 402 kts | 171° |
| 2026-04-21 19:26 | 55.19004 | -3.78757 | 27470 ft | 407 kts | 157° |
| 2026-04-21 19:27 | 55.16432 | -3.76589 | 27486 ft | 412 kts | 154° |
| 2026-04-21 19:27 | 55.13860 | -3.74327 | 27479 ft | 413 kts | 154° |
| 2026-04-21 19:27 | 55.11300 | -3.72060 | 27472 ft | 411 kts | 154° |
| 2026-04-21 19:27 | 55.08741 | -3.69809 | 27462 ft | 410 kts | 154° |
| 2026-04-21 19:28 | 55.06209 | -3.67602 | 27472 ft | 410 kts | 154° |
| 2026-04-21 19:28 | 55.03652 | -3.65393 | 27480 ft | 409 kts | 154° |
| 2026-04-21 19:28 | 55.01090 | -3.63192 | 27469 ft | 409 kts | 154° |
| 2026-04-21 19:28 | 54.98536 | -3.61008 | 27462 ft | 409 kts | 155° |
| 2026-04-21 19:29 | 54.95976 | -3.58826 | 27463 ft | 409 kts | 155° |
| 2026-04-21 19:29 | 54.93427 | -3.56657 | 27452 ft | 414 kts | 156° |
| 2026-04-21 19:29 | 54.90810 | -3.54436 | 27470 ft | 421 kts | 156° |
| 2026-04-21 19:29 | 54.88167 | -3.52195 | 27469 ft | 422 kts | 155° |
| 2026-04-21 19:30 | 54.85522 | -3.49955 | 27453 ft | 420 kts | 156° |
| 2026-04-21 19:30 | 54.82923 | -3.47756 | 27463 ft | 419 kts | 156° |
| 2026-04-21 19:30 | 54.80300 | -3.45539 | 27457 ft | 418 kts | 156° |
| 2026-04-21 19:30 | 54.77681 | -3.43329 | 27458 ft | 418 kts | 156° |
| 2026-04-21 19:31 | 54.75066 | -3.41127 | 27460 ft | 418 kts | 156° |
| 2026-04-21 19:31 | 54.72443 | -3.38921 | 27458 ft | 418 kts | 156° |
| 2026-04-21 19:31 | 54.69851 | -3.36744 | 27446 ft | 418 kts | 156° |
| 2026-04-21 19:31 | 54.67221 | -3.34539 | 27449 ft | 421 kts | 156° |
| 2026-04-21 19:32 | 54.64575 | -3.32325 | 27453 ft | 423 kts | 156° |
| 2026-04-21 19:32 | 54.61917 | -3.30103 | 27459 ft | 425 kts | 156° |
| 2026-04-21 19:32 | 54.59247 | -3.27875 | 27450 ft | 427 kts | 156° |
| 2026-04-21 19:32 | 54.56601 | -3.25669 | 27443 ft | 428 kts | 156° |
| 2026-04-21 19:33 | 54.54787 | -3.24157 | 27447 ft | 428 kts | 156° |
| 2026-04-21 19:33 | 54.51230 | -3.21200 | 27451 ft | 427 kts | 156° |
| 2026-04-21 19:33 | 54.48560 | -3.18983 | 27438 ft | 420 kts | 156° |
| 2026-04-21 19:33 | 54.45927 | -3.16799 | 27433 ft | 420 kts | 156° |
| 2026-04-21 19:34 | 54.43276 | -3.14606 | 27443 ft | 425 kts | 156° |
| 2026-04-21 19:34 | 54.40590 | -3.12389 | 27441 ft | 430 kts | 156° |
| 2026-04-21 19:34 | 54.37913 | -3.10181 | 27442 ft | 433 kts | 156° |
| 2026-04-21 19:34 | 54.35199 | -3.07943 | 27433 ft | 431 kts | 156° |
| 2026-04-21 19:35 | 54.32500 | -3.05719 | 27428 ft | 426 kts | 156° |
| 2026-04-21 19:35 | 54.27155 | -3.01327 | 27425 ft | 426 kts | 156° |
| 2026-04-21 19:35 | 54.24474 | -2.99133 | 27435 ft | 428 kts | 156° |
| 2026-04-21 19:36 | 54.21815 | -2.96955 | 27433 ft | 428 kts | 156° |
| 2026-04-21 19:36 | 54.19123 | -2.94754 | 27411 ft | 430 kts | 157° |
| 2026-04-21 19:36 | 54.16407 | -2.92543 | 27418 ft | 431 kts | 158° |
| 2026-04-21 19:36 | 54.13661 | -2.90471 | 27427 ft | 431 kts | 160° |
| 2026-04-21 19:37 | 54.10918 | -2.88513 | 27424 ft | 432 kts | 160° |
| 2026-04-21 19:37 | 54.08140 | -2.86551 | 27423 ft | 433 kts | 160° |
| 2026-04-21 19:37 | 54.05363 | -2.84568 | 27416 ft | 433 kts | 160° |
| 2026-04-21 19:37 | 54.02582 | -2.82561 | 27413 ft | 433 kts | 160° |
| 2026-04-21 19:38 | 53.99798 | -2.80545 | 27412 ft | 433 kts | 160° |
| 2026-04-21 19:38 | 53.97018 | -2.78541 | 27411 ft | 433 kts | 160° |
| 2026-04-21 19:38 | 53.95181 | -2.77222 | 27394 ft | 433 kts | 160° |
| 2026-04-21 19:38 | 53.91457 | -2.74557 | 27403 ft | 434 kts | 160° |
| 2026-04-21 19:39 | 53.88706 | -2.72580 | 27400 ft | 435 kts | 160° |
| 2026-04-21 19:39 | 53.85921 | -2.70563 | 27408 ft | 436 kts | 160° |
| 2026-04-21 19:39 | 53.83127 | -2.68537 | 27405 ft | 436 kts | 160° |
| 2026-04-21 19:39 | 53.80330 | -2.66514 | 27404 ft | 437 kts | 160° |
| 2026-04-21 19:40 | 53.77523 | -2.64491 | 27406 ft | 437 kts | 160° |
| 2026-04-21 19:40 | 53.74755 | -2.62504 | 27404 ft | 437 kts | 160° |
| 2026-04-21 19:40 | 53.71948 | -2.60497 | 27210 ft | 438 kts | 160° |
| 2026-04-21 19:40 | 53.69094 | -2.58461 | 26501 ft | 442 kts | 159° |
| 2026-04-21 19:41 | 53.66269 | -2.56445 | 25957 ft | 437 kts | 159° |
| 2026-04-21 19:41 | 53.63524 | -2.54487 | 25505 ft | 431 kts | 159° |
| 2026-04-21 19:41 | 53.60832 | -2.52312 | 25097 ft | 425 kts | 152° |
| 2026-04-21 19:41 | 53.58313 | -2.49784 | 24672 ft | 419 kts | 149° |
| 2026-04-21 19:42 | 53.55873 | -2.47155 | 24240 ft | 413 kts | 148° |
| 2026-04-21 19:42 | 53.53469 | -2.44551 | 23765 ft | 407 kts | 148° |
| 2026-04-21 19:42 | 53.51087 | -2.42013 | 23267 ft | 401 kts | 148° |
| 2026-04-21 19:42 | 53.48733 | -2.39553 | 22829 ft | 395 kts | 149° |
| 2026-04-21 19:43 | 53.46411 | -2.37158 | 22397 ft | 388 kts | 149° |
| 2026-04-21 19:43 | 53.44126 | -2.34819 | 21973 ft | 382 kts | 149° |
| 2026-04-21 19:43 | 53.41900 | -2.32546 | 21553 ft | 377 kts | 148° |
| 2026-04-21 19:43 | 53.39670 | -2.30273 | 21119 ft | 372 kts | 148° |
| 2026-04-21 19:44 | 53.37472 | -2.28034 | 20689 ft | 367 kts | 148° |
| 2026-04-21 19:44 | 53.35304 | -2.25831 | 20285 ft | 362 kts | 148° |
| 2026-04-21 19:44 | 53.33126 | -2.23739 | 19949 ft | 358 kts | 150° |
| 2026-04-21 19:44 | 53.30946 | -2.21737 | 19623 ft | 365 kts | 150° |
| 2026-04-21 19:45 | 53.28706 | -2.19700 | 19275 ft | 365 kts | 150° |
| 2026-04-21 19:45 | 53.26469 | -2.17661 | 18929 ft | 366 kts | 150° |
| 2026-04-21 19:45 | 53.24246 | -2.15631 | 18562 ft | 360 kts | 149° |
| 2026-04-21 19:45 | 53.22071 | -2.13637 | 18177 ft | 354 kts | 149° |
| 2026-04-21 19:46 | 53.19917 | -2.11657 | 17811 ft | 354 kts | 149° |
| 2026-04-21 19:46 | 53.17764 | -2.09679 | 17469 ft | 353 kts | 148° |
| 2026-04-21 19:46 | 53.15633 | -2.07720 | 17133 ft | 354 kts | 149° |
| 2026-04-21 19:46 | 53.13467 | -2.05733 | 16790 ft | 357 kts | 149° |
| 2026-04-21 19:47 | 53.11295 | -2.03741 | 16444 ft | 355 kts | 149° |
| 2026-04-21 19:47 | 53.09145 | -2.01772 | 16102 ft | 351 kts | 149° |
| 2026-04-21 19:47 | 53.07010 | -1.99821 | 15777 ft | 350 kts | 149° |
| 2026-04-21 19:47 | 53.04865 | -1.97917 | 15442 ft | 348 kts | 152° |
| 2026-04-21 19:48 | 53.02518 | -1.96939 | 15105 ft | 351 kts | 171° |
| 2026-04-21 19:48 | 53.00096 | -1.96641 | 14780 ft | 348 kts | 172° |
| 2026-04-21 19:48 | 52.97670 | -1.96367 | 14452 ft | 347 kts | 173° |
| 2026-04-21 19:48 | 52.95294 | -1.96091 | 14127 ft | 346 kts | 173° |
| 2026-04-21 19:49 | 52.92899 | -1.95802 | 13758 ft | 345 kts | 174° |
| 2026-04-21 19:49 | 52.90503 | -1.95504 | 13406 ft | 343 kts | 172° |
| 2026-04-21 19:49 | 52.88125 | -1.95200 | 13071 ft | 341 kts | 173° |
| 2026-04-21 19:49 | 52.85760 | -1.94894 | 12745 ft | 340 kts | 172° |
| 2026-04-21 19:50 | 52.84201 | -1.94691 | 12515 ft | 338 kts | 173° |
| 2026-04-21 19:50 | 52.81074 | -1.94284 | 12032 ft | 333 kts | 173° |
| 2026-04-21 19:50 | 52.78783 | -1.94031 | 11414 ft | 335 kts | 177° |
| 2026-04-21 19:50 | 52.76486 | -1.94700 | 10779 ft | 336 kts | 199° |
| 2026-04-21 19:51 | 52.74510 | -1.96716 | 10181 ft | 332 kts | 217° |
| 2026-04-21 19:51 | 52.72784 | -1.99210 | 9505 ft | 326 kts | 219° |
| 2026-04-21 19:51 | 52.71118 | -2.01743 | 8555 ft | 328 kts | 220° |
| 2026-04-21 19:51 | 52.69455 | -2.04293 | 7615 ft | 331 kts | 220° |
| 2026-04-21 19:52 | 52.67787 | -2.06883 | 6883 ft | 327 kts | 220° |
| 2026-04-21 19:52 | 52.66147 | -2.09457 | 6178 ft | 322 kts | 220° |
| 2026-04-21 19:52 | 52.64568 | -2.11971 | 5663 ft | 311 kts | 220° |
| 2026-04-21 19:52 | 52.63052 | -2.14414 | 5377 ft | 295 kts | 220° |
| 2026-04-21 19:53 | 52.61645 | -2.16713 | 5112 ft | 282 kts | 220° |
| 2026-04-21 19:53 | 52.60295 | -2.18946 | 4985 ft | 265 kts | 220° |
| 2026-04-21 19:53 | 52.59039 | -2.21048 | 4976 ft | 252 kts | 220° |
| 2026-04-21 19:53 | 52.57898 | -2.23247 | 4972 ft | 256 kts | 237° |
| 2026-04-21 19:54 | 52.57439 | -2.26072 | 4991 ft | 259 kts | 270° |
| 2026-04-21 19:54 | 52.57865 | -2.28891 | 4984 ft | 257 kts | 303° |
| 2026-04-21 19:54 | 52.59052 | -2.30977 | 5005 ft | 247 kts | 335° |
| 2026-04-21 19:54 | 52.60627 | -2.31755 | 4999 ft | 229 kts | 7° |
| 2026-04-21 19:55 | 52.62037 | -2.31109 | 4988 ft | 197 kts | 42° |
| 2026-04-21 19:55 | 52.62794 | -2.29446 | 4988 ft | 175 kts | 78° |
| 2026-04-21 19:55 | 52.62905 | -2.27500 | 4989 ft | 173 kts | 89° |
| 2026-04-21 19:55 | 52.62930 | -2.25507 | 4984 ft | 174 kts | 90° |
| 2026-04-21 19:56 | 52.62948 | -2.23507 | 4912 ft | 176 kts | 90° |
| 2026-04-21 19:56 | 52.62967 | -2.21473 | 4756 ft | 177 kts | 90° |
| 2026-04-21 19:56 | 52.62923 | -2.19477 | 4598 ft | 176 kts | 99° |
| 2026-04-21 19:56 | 52.62673 | -2.17505 | 4390 ft | 175 kts | 100° |
| 2026-04-21 19:57 | 52.62427 | -2.15554 | 4176 ft | 172 kts | 100° |
| 2026-04-21 19:57 | 52.62186 | -2.13647 | 3964 ft | 169 kts | 100° |
| 2026-04-21 19:57 | 52.61945 | -2.11751 | 3755 ft | 169 kts | 100° |
| 2026-04-21 19:57 | 52.61702 | -2.09860 | 3562 ft | 168 kts | 100° |
| 2026-04-21 19:58 | 52.61461 | -2.07972 | 3341 ft | 167 kts | 100° |
| 2026-04-21 19:58 | 52.61230 | -2.06142 | 3138 ft | 165 kts | 100° |
| 2026-04-21 19:58 | 52.60991 | -2.04262 | 3032 ft | 166 kts | 100° |
| 2026-04-21 19:58 | 52.60757 | -2.02438 | 2991 ft | 164 kts | 100° |
| 2026-04-21 19:59 | 52.60520 | -2.00602 | 2986 ft | 164 kts | 100° |
| 2026-04-21 19:59 | 52.60279 | -1.98754 | 2989 ft | 166 kts | 100° |
| 2026-04-21 19:59 | 52.60031 | -1.96879 | 2996 ft | 168 kts | 100° |
| 2026-04-21 19:59 | 52.59779 | -1.94989 | 2991 ft | 169 kts | 100° |
| 2026-04-21 20:00 | 52.59532 | -1.93108 | 2995 ft | 170 kts | 100° |
| 2026-04-21 20:00 | 52.59259 | -1.91203 | 2996 ft | 172 kts | 107° |
| 2026-04-21 20:00 | 52.58813 | -1.90105 | 2979 ft | 180 kts | 133° |
| 2026-04-21 20:00 | 52.57784 | -1.88904 | 2988 ft | 180 kts | 134° |
| 2026-04-21 20:01 | 52.56832 | -1.87558 | 2872 ft | 182 kts | 136° |
| 2026-04-21 20:01 | 52.55436 | -1.85980 | 2565 ft | 182 kts | 139° |
| 2026-04-21 20:01 | 52.54743 | -1.85222 | 2410 ft | 172 kts | 138° |
| 2026-04-21 20:01 | 52.53802 | -1.84181 | 2171 ft | 160 kts | 137° |
| 2026-04-21 20:02 | 52.52893 | -1.83166 | 1954 ft | 158 kts | 137° |
| 2026-04-21 20:02 | 52.51974 | -1.82139 | 1747 ft | 160 kts | 137° |
| 2026-04-21 20:02 | 52.51091 | -1.81161 | 1517 ft | 147 kts | 136° |
| 2026-04-21 20:02 | 52.50265 | -1.80236 | 1332 ft | 145 kts | 138° |
| 2026-04-21 20:03 | 52.49439 | -1.79304 | 1116 ft | 144 kts | 141° |
| 2026-04-21 20:03 | 52.48585 | -1.78381 | 925 ft | 150 kts | 140° |
| 2026-04-21 20:03 | 52.47729 | -1.77410 | 694 ft | 150 kts | 141° |
| 2026-04-21 20:03 | 52.46871 | -1.76458 | 487 ft | 145 kts | 144° |
| 2026-04-21 20:04 | 52.46049 | -1.75537 | 320 ft | 143 kts | 144° |
| 2026-04-21 20:04 | 52.45311 | -1.74716 | 323 ft | 111 kts | 149° |
| 2026-04-21 20:04 | 52.44773 | -1.74121 | 322 ft | 63 kts | 147° |
| 2026-04-21 20:04 | 52.44649 | -1.73952 | 326 ft | 15 kts | 88° |
| 2026-04-21 20:05 | 52.44700 | -1.73820 | 324 ft | 15 kts | 56° |
| 2026-04-21 20:05 | 52.44764 | -1.73715 | 323 ft | 12 kts | 20° |
| 2026-04-21 20:05 | 52.44845 | -1.73675 | 323 ft | 12 kts | 21° |
| 2026-04-21 20:05 | 52.44880 | -1.73599 | 323 ft | 7 kts | 56° |
| 2026-04-21 20:06 | 52.44897 | -1.73533 | 320 ft | 6 kts | 74° |
| 2026-04-21 20:06 | 52.44915 | -1.73473 | 322 ft | 6 kts | 54° |
| 2026-04-21 20:06 | 52.44938 | -1.73419 | 323 ft | 5 kts | 56° |
| 2026-04-21 20:06 | 52.44958 | -1.73370 | 321 ft | 5 kts | 56° |
| 2026-04-21 20:07 | 52.44962 | -1.73334 | 323 ft | 3 kts | 123° |
| 2026-04-21 20:07 | 52.44948 | -1.73312 | 320 ft | 3 kts | 140° |
| 2026-04-21 20:07 | 52.44935 | -1.73296 | 323 ft | 2 kts | 142° |
| 2026-04-21 20:07 | 52.44931 | -1.73292 | 323 ft | 0 kts | 144° |
| 2026-04-21 20:08 | 52.44930 | -1.73291 | 323 ft | 0 kts | 144° |